createdAt,value
2022-11-28T00:02:18.664Z,100549.34
2022-11-28T00:04:51.629Z,100548.53
2022-11-28T00:07:47.338Z,100541.88
2022-11-28T00:10:18.514Z,100532.34
2022-11-28T00:12:50.390Z,100539.38
2022-11-28T00:15:19.874Z,100529.00
2022-11-28T00:17:48.458Z,100531.03
2022-11-28T00:20:18.111Z,100532.63
2022-11-28T00:22:46.104Z,100514.22
2022-11-28T00:25:14.276Z,100519.34
2022-11-28T00:27:43.910Z,100527.19
2022-11-28T00:30:14.273Z,100529.72
2022-11-28T00:32:42.960Z,100522.72
2022-11-28T00:35:12.166Z,100517.59
2022-11-28T00:37:41.769Z,100510.97
2022-11-28T00:40:11.852Z,100512.84
2022-11-28T00:42:40.483Z,100509.28
2022-11-28T00:45:12.806Z,100503.28
2022-11-28T00:47:40.868Z,100509.28
2022-11-28T00:50:09.954Z,100511.13
2022-11-28T00:52:40.569Z,100492.06
2022-11-28T00:55:10.481Z,100491.41
2022-11-28T00:57:39.579Z,100486.28
2022-11-28T01:00:09.167Z,100480.31
2022-11-28T01:02:39.031Z,100474.34
2022-11-28T01:05:10.565Z,100480.50
2022-11-28T01:07:42.446Z,100462.28
2022-11-28T01:10:16.219Z,100478.16
2022-11-28T01:12:45.987Z,100480.13
2022-11-28T01:15:17.973Z,100489.53
2022-11-28T01:17:47.647Z,100484.44
2022-11-28T01:20:18.328Z,100491.41
2022-11-28T01:22:46.707Z,100494.88
2022-11-28T01:25:14.684Z,100492.34
2022-11-28T01:27:43.172Z,100486.28
2022-11-28T01:30:13.229Z,100481.97
2022-11-28T01:32:41.563Z,100474.13
2022-11-28T01:35:13.443Z,100470.22
2022-11-28T01:37:42.079Z,100469.38
2022-11-28T01:40:12.038Z,100476.28
2022-11-28T01:42:43.836Z,100467.50
2022-11-28T01:45:16.944Z,100460.31
2022-11-28T01:47:48.056Z,100445.56
2022-11-28T01:50:21.326Z,100450.97
2022-11-28T01:52:54.807Z,100452.84
2022-11-28T01:55:30.436Z,100462.56
2022-11-28T01:57:59.057Z,100451.38
2022-11-28T02:00:26.964Z,100445.94
2022-11-28T02:03:02.031Z,100439.19
2022-11-28T02:05:33.150Z,100437.34
2022-11-28T02:08:06.390Z,100437.34
2022-11-28T02:10:45.105Z,100431.34
2022-11-28T02:13:26.330Z,100432.19
2022-11-28T02:16:10.450Z,100433.97
2022-11-28T02:18:52.493Z,100432.13
2022-11-28T02:21:39.597Z,100411.94
2022-11-28T02:24:44.263Z,100414.75
2022-11-28T02:27:23.106Z,100421.75
2022-11-28T02:30:10.303Z,100412.97
2022-11-28T02:33:02.258Z,100414.47
2022-11-28T02:35:36.997Z,100418.03
2022-11-28T02:38:14.437Z,100414.34
2022-11-28T02:40:53.901Z,100413.44
2022-11-28T02:43:30.751Z,100411.84
2022-11-28T02:46:03.446Z,100404.09
2022-11-28T02:48:41.909Z,100409.22
2022-11-28T02:51:18.038Z,100406.63
2022-11-28T02:53:53.118Z,100403.34
2022-11-28T02:56:26.932Z,100407.94
2022-11-28T02:58:56.256Z,100399.97
2022-11-28T03:01:29.639Z,100395.69
2022-11-28T03:04:14.030Z,100387.84
2022-11-28T03:06:49.862Z,100396.44
2022-11-28T03:09:34.087Z,100390.44
2022-11-28T03:12:16.831Z,100397.56
2022-11-28T03:14:52.576Z,100395.78
2022-11-28T03:17:32.142Z,100395.97
2022-11-28T03:20:21.892Z,100394.19
2022-11-28T03:23:07.183Z,100396.81
2022-11-28T03:25:45.997Z,100398.66
2022-11-28T03:28:24.537Z,100402.03
2022-11-28T03:30:59.765Z,100396.63
2022-11-28T03:33:35.327Z,100393.25
2022-11-28T03:36:13.559Z,100392.53
2022-11-28T03:38:47.381Z,100383.91
2022-11-28T03:41:19.612Z,100384.84
2022-11-28T03:43:55.404Z,100384.28
2022-11-28T03:46:32.785Z,100381.78
2022-11-28T03:49:03.800Z,100364.44
2022-11-28T03:51:39.344Z,100360.09
2022-11-28T03:54:12.607Z,100356.59
2022-11-28T03:56:46.643Z,100353.84
2022-11-28T03:59:21.450Z,100354.50
2022-11-28T04:01:58.347Z,100348.75
2022-11-28T04:04:30.506Z,100345.28
2022-11-28T04:07:12.998Z,100353.84
2022-11-28T04:09:46.425Z,100349.38
2022-11-28T04:12:24.844Z,100344.25
2022-11-28T04:14:57.018Z,100351.16
2022-11-28T04:17:33.524Z,100354.06
2022-11-28T04:20:07.602Z,100339.31
2022-11-28T04:22:42.984Z,100339.03
2022-11-28T04:25:15.940Z,100333.78
2022-11-28T04:27:51.031Z,100327.72
2022-11-28T04:30:19.222Z,100334.72
2022-11-28T04:32:51.792Z,100332.00
2022-11-28T04:35:28.075Z,100333.78
2022-11-28T04:38:03.758Z,100320.88
2022-11-28T04:40:34.576Z,100334.63
2022-11-28T04:43:05.685Z,100330.31
2022-11-28T04:45:37.603Z,100325.09
2022-11-28T04:48:08.117Z,100314.00
2022-11-28T04:50:41.748Z,100317.44
2022-11-28T04:53:20.586Z,100312.88
2022-11-28T04:55:54.398Z,100314.34
2022-11-28T04:58:32.401Z,100309.97
2022-11-28T05:01:07.558Z,100299.50
2022-11-28T05:03:42.246Z,100293.34
2022-11-28T05:06:13.835Z,100293.34
2022-11-28T05:08:45.006Z,100303.72
2022-11-28T05:11:17.980Z,100299.31
2022-11-28T05:13:45.969Z,100301.09
2022-11-28T05:16:18.446Z,100311.47
2022-11-28T05:18:46.823Z,100311.47
2022-11-28T05:21:17.691Z,100303.63
2022-11-28T05:23:49.669Z,100301.28
2022-11-28T05:26:20.856Z,100296.25
2022-11-28T05:28:52.923Z,100300.53
2022-11-28T05:31:22.394Z,100301.47
2022-11-28T05:33:50.312Z,100301.56
2022-11-28T05:36:18.910Z,100296.44
2022-11-28T05:38:54.678Z,100305.97
2022-11-28T05:41:24.592Z,100305.97
2022-11-28T05:43:53.438Z,100308.47
2022-11-28T05:46:25.327Z,100299.81
2022-11-28T05:48:57.987Z,100299.81
2022-11-28T05:51:30.245Z,100291.09
2022-11-28T05:53:59.667Z,100298.22
2022-11-28T05:56:27.924Z,100294.56
2022-11-28T05:58:56.224Z,100285.41
2022-11-28T06:01:27.682Z,100298.41
2022-11-28T06:04:00.724Z,100294.88
2022-11-28T06:06:31.722Z,100292.91
2022-11-28T06:09:05.023Z,100306.91
2022-11-28T06:11:35.259Z,100305.03
2022-11-28T06:14:06.065Z,100306.72
2022-11-28T06:16:34.422Z,100308.66
2022-11-28T06:19:06.374Z,100301.38
2022-11-28T06:21:35.825Z,100305.03
2022-11-28T06:24:05.998Z,100303.22
2022-11-28T06:26:34.305Z,100309.31
2022-11-28T06:29:05.352Z,100313.16
2022-11-28T06:31:34.096Z,100305.31
2022-11-28T06:34:05.028Z,100310.63
2022-11-28T06:36:35.157Z,100295.59
2022-11-28T06:39:04.644Z,100298.00
2022-11-28T06:41:34.668Z,100299.41
2022-11-28T06:44:03.195Z,100289.78
2022-11-28T06:46:31.543Z,100289.78
2022-11-28T06:49:00.058Z,100288.97
2022-11-28T06:51:28.425Z,100290.72
2022-11-28T06:53:56.616Z,100296.88
2022-11-28T06:56:26.067Z,100293.25
2022-11-28T06:58:59.121Z,100303.66
2022-11-28T07:01:29.731Z,100290.56
2022-11-28T07:03:58.141Z,100289.78
2022-11-28T07:06:28.471Z,100300.22
2022-11-28T07:08:57.864Z,100298.31
2022-11-28T07:11:27.751Z,100296.53
2022-11-28T07:13:58.097Z,100299.81
2022-11-28T07:16:28.348Z,100307.72
2022-11-28T07:18:59.943Z,100311.28
2022-11-28T07:21:33.506Z,100311.19
2022-11-28T07:24:01.769Z,100316.31
2022-11-28T07:26:30.256Z,100318.91
2022-11-28T07:29:01.263Z,100315.13
2022-11-28T07:31:32.610Z,100318.53
2022-11-28T07:34:03.664Z,100327.63
2022-11-28T07:36:32.645Z,100318.91
2022-11-28T07:39:04.055Z,100318.91
2022-11-28T07:41:33.557Z,100316.44
2022-11-28T07:44:05.704Z,100323.97
2022-11-28T07:46:35.324Z,100321.53
2022-11-28T07:49:05.936Z,100324.63
2022-11-28T07:51:36.878Z,100318.38
2022-11-28T07:54:10.782Z,100323.41
2022-11-28T07:57:10.765Z,100326.94
2022-11-28T07:59:30.227Z,100329.56
2022-11-28T08:02:01.172Z,100327.31
2022-11-28T08:04:29.525Z,100325.84
2022-11-28T08:06:58.229Z,100324.97
2022-11-28T08:09:26.201Z,100328.44
2022-11-28T08:11:57.589Z,100332.81
2022-11-28T08:14:25.711Z,100319.47
2022-11-28T08:16:54.905Z,100321.13
2022-11-28T08:19:29.364Z,100324.69
2022-11-28T08:22:02.466Z,100330.88
2022-11-28T08:24:32.443Z,100335.16
2022-11-28T08:27:02.110Z,100330.28
2022-11-28T08:29:30.371Z,100332.81
2022-11-28T08:32:02.155Z,100321.09
2022-11-28T08:34:31.383Z,100325.50
2022-11-28T08:37:00.562Z,100314.75
2022-11-28T08:39:29.965Z,100314.75
2022-11-28T08:41:59.868Z,100311.63
2022-11-28T08:44:31.868Z,100308.38
2022-11-28T08:47:00.408Z,100305.47
2022-11-28T08:49:29.892Z,100310.81
2022-11-28T08:51:59.047Z,100309.88
2022-11-28T08:54:27.231Z,100311.06
2022-11-28T08:56:57.154Z,100308.88
2022-11-28T08:59:25.133Z,100307.53
2022-11-28T09:01:55.070Z,100308.06
2022-11-28T09:04:25.610Z,100315.41
2022-11-28T09:06:55.669Z,100313.56
2022-11-28T09:09:24.168Z,100311.34
2022-11-28T09:11:52.277Z,100311.03
2022-11-28T09:14:20.632Z,100308.97
2022-11-28T09:16:52.425Z,100315.66
2022-11-28T09:19:20.427Z,100307.59
2022-11-28T09:21:51.927Z,100308.53
2022-11-28T09:24:24.964Z,100308.13
2022-11-28T09:26:52.979Z,100308.03
2022-11-28T09:29:24.890Z,100306.84
2022-11-28T09:31:54.097Z,100305.63
2022-11-28T09:34:23.843Z,100307.72
2022-11-28T09:36:51.969Z,100310.97
2022-11-28T09:39:20.377Z,100311.69
2022-11-28T09:41:59.516Z,100307.22
2022-11-28T09:44:37.255Z,100301.97
2022-11-28T09:47:12.258Z,100301.03
2022-11-28T09:49:46.871Z,100301.13
2022-11-28T09:52:27.973Z,100311.50
2022-11-28T09:55:05.772Z,100307.84
2022-11-28T09:57:44.719Z,100308.91
2022-11-28T10:00:22.826Z,100307.22
2022-11-28T10:03:16.173Z,100305.78
2022-11-28T10:05:49.582Z,100311.50
2022-11-28T10:08:27.107Z,100308.38
2022-11-28T10:11:02.688Z,100300.00
2022-11-28T10:14:06.592Z,100303.25
2022-11-28T10:16:42.870Z,100301.97
2022-11-28T10:19:46.106Z,100297.28
2022-11-28T10:22:13.313Z,100294.44
2022-11-28T10:24:47.135Z,100289.81
2022-11-28T10:27:26.631Z,100280.50
2022-11-28T10:30:01.221Z,100275.03
2022-11-28T10:32:35.572Z,100277.88
2022-11-28T10:35:07.553Z,100272.63
2022-11-28T10:37:41.606Z,100267.16
2022-11-28T10:40:22.219Z,100268.00
2022-11-28T10:42:57.656Z,100269.69
2022-11-28T10:45:33.855Z,100267.06
2022-11-28T10:48:39.673Z,100273.13
2022-11-28T10:51:22.377Z,100261.72
2022-11-28T10:54:06.093Z,100268.72
2022-11-28T10:56:44.609Z,100266.41
2022-11-28T10:59:29.239Z,100278.44
2022-11-28T11:02:00.880Z,100275.09
2022-11-28T11:04:29.594Z,100267.38
2022-11-28T11:07:12.787Z,100266.91
2022-11-28T11:09:45.126Z,100268.09
2022-11-28T11:12:21.577Z,100263.94
2022-11-28T11:14:49.762Z,100258.22
2022-11-28T11:17:36.339Z,100267.75
2022-11-28T11:20:26.445Z,100264.28
2022-11-28T11:22:56.947Z,100259.78
2022-11-28T11:25:28.274Z,100257.22
2022-11-28T11:28:01.125Z,100256.16
2022-11-28T11:30:33.209Z,100246.97
2022-11-28T11:33:05.348Z,100253.25
2022-11-28T11:35:38.723Z,100248.41
2022-11-28T11:38:19.473Z,100249.53
2022-11-28T11:40:49.579Z,100245.75
2022-11-28T11:43:28.633Z,100247.28
2022-11-28T11:46:07.788Z,100244.56
2022-11-28T11:48:39.986Z,100240.03
2022-11-28T11:51:26.836Z,100239.91
2022-11-28T11:54:05.813Z,100241.91
2022-11-28T11:56:38.378Z,100242.91
2022-11-28T11:59:14.910Z,100232.16
2022-11-28T12:01:44.723Z,100243.41
2022-11-28T12:04:44.462Z,100246.97
2022-11-28T12:07:19.276Z,100247.75
2022-11-28T12:09:53.529Z,100250.22
2022-11-28T12:12:25.031Z,100250.56
2022-11-28T12:14:53.975Z,100245.06
2022-11-28T12:17:51.487Z,100244.97
2022-11-28T12:20:58.250Z,100245.69
2022-11-28T12:23:49.367Z,100242.13
2022-11-28T12:26:25.474Z,100235.72
2022-11-28T12:29:10.013Z,100241.28
2022-11-28T12:31:47.426Z,100235.19
2022-11-28T12:34:27.960Z,100240.56
2022-11-28T12:37:09.296Z,100239.94
2022-11-28T12:39:59.525Z,100237.66
2022-11-28T12:42:44.600Z,100233.28
2022-11-28T12:45:30.883Z,100240.78
2022-11-28T12:48:10.178Z,100242.13
2022-11-28T12:50:41.792Z,100236.53
2022-11-28T12:53:38.783Z,100234.75
2022-11-28T12:56:22.980Z,100231.53
2022-11-28T12:59:03.605Z,100231.13
2022-11-28T13:01:46.053Z,100224.66
2022-11-28T13:04:30.260Z,100227.28
2022-11-28T13:07:08.748Z,100229.97
2022-11-28T13:09:44.983Z,100221.75
2022-11-28T13:12:23.936Z,100219.13
2022-11-28T13:14:58.928Z,100212.50
2022-11-28T13:17:39.908Z,100221.31
2022-11-28T13:20:21.119Z,100215.53
2022-11-28T13:23:02.783Z,100209.25
2022-11-28T13:25:44.641Z,100215.47
2022-11-28T13:28:23.492Z,100222.09
2022-11-28T13:30:56.491Z,100219.47
2022-11-28T13:33:40.015Z,100221.13
2022-11-28T13:39:26.958Z,100227.22
2022-11-28T13:42:35.945Z,100223.84
2022-11-28T13:45:01.397Z,100221.81
2022-11-28T13:47:35.035Z,100223.81
2022-11-28T13:50:41.507Z,100222.88
2022-11-28T13:53:26.934Z,100227.59
2022-11-28T13:56:22.885Z,100226.97
2022-11-28T13:58:56.981Z,100229.31
2022-11-28T14:01:29.225Z,100225.53
2022-11-28T14:04:11.034Z,100222.78
2022-11-28T14:06:45.881Z,100221.84
2022-11-28T14:09:29.940Z,100220.69
2022-11-28T14:12:12.913Z,100203.78
2022-11-28T14:15:11.483Z,100210.69
2022-11-28T14:17:55.225Z,100206.72
2022-11-28T14:20:32.046Z,100211.03
2022-11-28T14:23:22.844Z,100213.31
2022-11-28T14:25:53.664Z,100214.88
2022-11-28T14:28:27.592Z,100220.84
2022-11-28T14:31:10.060Z,100218.44
2022-11-28T14:33:44.405Z,100222.16
2022-11-28T14:36:34.694Z,100224.63
2022-11-28T14:39:12.069Z,100229.41
2022-11-28T14:42:43.896Z,100227.16
2022-11-28T14:45:43.822Z,100228.38
2022-11-28T14:48:19.718Z,100230.50
2022-11-28T14:51:01.740Z,100232.31
2022-11-28T14:53:45.907Z,100239.22
2022-11-28T14:56:26.249Z,100240.91
2022-11-28T14:58:58.696Z,100235.41
2022-11-28T15:01:41.685Z,100236.97
2022-11-28T15:04:28.253Z,100234.25
2022-11-28T15:07:00.924Z,100229.84
2022-11-28T15:09:38.696Z,100232.34
2022-11-28T15:12:15.214Z,100231.53
2022-11-28T15:14:48.146Z,100234.00
2022-11-28T15:17:16.781Z,100233.28
2022-11-28T15:19:47.974Z,100232.56
2022-11-28T15:22:34.684Z,100236.25
2022-11-28T15:25:02.896Z,100232.78
2022-11-28T15:27:32.976Z,100231.97
2022-11-28T15:30:04.359Z,100233.88
2022-11-28T15:32:33.705Z,100240.19
2022-11-28T15:35:10.948Z,100234.94
2022-11-28T15:37:49.039Z,100239.22
2022-11-28T15:40:21.487Z,100234.06
2022-11-28T15:42:51.415Z,100234.78
2022-11-28T15:45:26.873Z,100234.06
2022-11-28T15:47:58.610Z,100234.06
2022-11-28T15:50:28.499Z,100234.94
2022-11-28T15:53:01.126Z,100243.50
2022-11-28T15:55:34.014Z,100238.81
2022-11-28T15:58:18.970Z,100242.38
2022-11-28T16:00:52.197Z,100251.94
2022-11-28T16:03:25.787Z,100253.81
2022-11-28T16:05:55.893Z,100242.19
2022-11-28T16:08:30.169Z,100247.91
2022-11-28T16:11:01.839Z,100242.22
2022-11-28T16:13:33.868Z,100247.97
2022-11-28T16:16:04.513Z,100250.94
2022-11-28T16:18:34.578Z,100251.75
2022-11-28T16:21:05.641Z,100242.22
2022-11-28T16:23:37.831Z,100240.56
2022-11-28T16:26:08.283Z,100241.75
2022-11-28T16:28:38.766Z,100248.53
2022-11-28T16:31:23.072Z,100243.19
2022-11-28T16:33:53.082Z,100247.59
2022-11-28T16:36:24.293Z,100251.03
2022-11-28T16:39:04.275Z,100256.28
2022-11-28T16:41:32.623Z,100253.78
2022-11-28T16:44:03.623Z,100260.72
2022-11-28T16:46:42.859Z,100266.78
2022-11-28T16:49:35.119Z,100259.97
2022-11-28T16:52:46.078Z,100253.78
2022-11-28T16:55:44.628Z,100259.03
2022-11-28T16:58:18.894Z,100262.41
2022-11-28T17:00:53.597Z,100266.78
2022-11-28T17:03:38.483Z,100265.84
2022-11-28T17:06:17.291Z,100262.41
2022-11-28T17:08:45.767Z,100263.34
2022-11-28T17:11:22.954Z,100264.28
2022-11-28T17:13:57.252Z,100260.09
2022-11-28T17:16:30.380Z,100269.66
2022-11-28T17:19:02.279Z,100270.59
2022-11-28T17:21:34.411Z,100270.41
2022-11-28T17:24:05.263Z,100266.84
2022-11-28T17:26:36.119Z,100279.00
2022-11-28T17:29:04.239Z,100273.16
2022-11-28T17:31:32.360Z,100276.72
2022-11-28T17:34:00.950Z,100272.19
2022-11-28T17:36:29.598Z,100293.28
2022-11-28T17:39:04.835Z,100288.50
2022-11-28T17:41:33.574Z,100286.78
2022-11-28T17:44:04.994Z,100284.94
2022-11-28T17:46:33.428Z,100284.84
2022-11-28T17:49:03.371Z,100284.00
2022-11-28T17:51:31.498Z,100291.66
2022-11-28T17:54:03.529Z,100282.31
2022-11-28T17:56:32.578Z,100279.47
2022-11-28T17:59:01.195Z,100282.31
2022-11-28T18:01:31.927Z,100270.91
2022-11-28T18:04:00.501Z,100276.16
2022-11-28T18:06:29.412Z,100274.44
2022-11-28T18:08:59.878Z,100266.56
2022-11-28T18:11:31.992Z,100272.03
2022-11-28T18:14:04.005Z,100282.75
2022-11-28T18:16:35.881Z,100277.84
2022-11-28T18:19:07.182Z,100277.53
2022-11-28T18:21:35.670Z,100280.00
2022-11-28T18:24:06.332Z,100285.59
2022-11-28T18:26:37.723Z,100274.38
2022-11-28T18:29:09.840Z,100280.78
2022-11-28T18:31:40.987Z,100282.47
2022-11-28T18:34:12.300Z,100292.72
2022-11-28T18:36:41.562Z,100282.88
2022-11-28T18:39:15.622Z,100285.59
2022-11-28T18:41:44.977Z,100290.44
2022-11-28T18:44:14.620Z,100285.09
2022-11-28T18:46:44.718Z,100292.19
2022-11-28T18:49:16.676Z,100295.78
2022-11-28T18:51:45.772Z,100294.63
2022-11-28T18:54:21.000Z,100295.13
2022-11-28T18:56:53.335Z,100296.63
2022-11-28T18:59:21.467Z,100296.63
2022-11-28T19:01:55.430Z,100289.38
2022-11-28T19:04:23.814Z,100299.75
2022-11-28T19:06:51.765Z,100301.31
2022-11-28T19:09:23.190Z,100299.41
2022-11-28T19:11:51.937Z,100298.50
2022-11-28T19:14:21.400Z,100298.69
2022-11-28T19:16:53.738Z,100298.69
2022-11-28T19:19:25.347Z,100302.19
2022-11-28T19:21:54.824Z,100306.56
2022-11-28T19:24:25.349Z,100301.22
2022-11-28T19:26:53.727Z,100308.88
2022-11-28T19:29:22.618Z,100302.78
2022-11-28T19:31:52.297Z,100303.63
2022-11-28T19:34:21.203Z,100303.50
2022-11-28T19:36:52.072Z,100310.34
2022-11-28T19:39:23.174Z,100305.50
2022-11-28T19:41:55.496Z,100304.56
2022-11-28T19:44:24.807Z,100306.13
2022-11-28T19:46:56.448Z,100303.75
2022-11-28T19:49:27.192Z,100300.28
2022-11-28T19:51:57.735Z,100303.84
2022-11-28T19:54:25.970Z,100306.38
2022-11-28T19:56:56.563Z,100305.19
2022-11-28T19:59:25.064Z,100310.34
2022-11-28T20:01:53.960Z,100311.06
2022-11-28T20:04:25.019Z,100309.47
2022-11-28T20:06:53.408Z,100313.69
2022-11-28T20:09:22.791Z,100312.25
2022-11-28T20:11:54.386Z,100314.00
2022-11-28T20:14:25.862Z,100321.88
2022-11-28T20:16:55.490Z,100319.88
2022-11-28T20:19:28.507Z,100318.81
2022-11-28T20:21:58.480Z,100323.22
2022-11-28T20:24:30.855Z,100314.41
2022-11-28T20:27:02.095Z,100319.78
2022-11-28T20:29:30.190Z,100325.03
2022-11-28T20:31:59.435Z,100322.28
2022-11-28T20:34:33.321Z,100324.28
2022-11-28T20:37:02.883Z,100326.78
2022-11-28T20:39:31.695Z,100333.84
2022-11-28T20:42:02.133Z,100334.56
2022-11-28T20:44:30.755Z,100337.09
2022-11-28T20:46:58.854Z,100336.25
2022-11-28T20:49:27.040Z,100329.41
2022-11-28T20:51:57.917Z,100334.47
2022-11-28T20:54:29.197Z,100327.50
2022-11-28T20:57:20.469Z,100344.09
2022-11-28T20:59:46.861Z,100338.00
2022-11-28T21:02:17.520Z,100344.19
2022-11-28T21:04:45.609Z,100347.59
2022-11-28T21:07:15.358Z,100335.28
2022-11-28T21:09:44.683Z,100343.88
2022-11-28T21:12:19.473Z,100342.09
2022-11-28T21:14:48.828Z,100341.25
2022-11-28T21:17:16.921Z,100341.16
2022-11-28T21:19:45.519Z,100339.38
2022-11-28T21:22:15.017Z,100336.75
2022-11-28T21:24:45.206Z,100341.16
2022-11-28T21:27:15.369Z,100335.81
2022-11-28T21:29:44.420Z,100329.84
2022-11-28T21:32:15.868Z,100340.22
2022-11-28T21:34:45.732Z,100334.13
2022-11-28T21:37:15.562Z,100343.78
2022-11-28T21:39:44.024Z,100336.75
2022-11-28T21:42:20.477Z,100344.63
2022-11-28T21:44:50.716Z,100342.97
2022-11-28T21:47:25.022Z,100337.59
2022-11-28T21:49:53.722Z,100334.00
2022-11-28T21:52:29.544Z,100334.88
2022-11-28T21:54:57.843Z,100334.88
2022-11-28T21:57:26.313Z,100344.41
2022-11-28T21:59:55.496Z,100338.34
2022-11-28T22:02:29.191Z,100346.06
2022-11-28T22:05:00.111Z,100340.81
2022-11-28T22:07:31.971Z,100341.59
2022-11-28T22:10:22.631Z,100338.09
2022-11-28T22:12:53.611Z,100339.88
2022-11-28T22:15:22.209Z,100344.22
2022-11-28T22:17:51.461Z,100346.84
2022-11-28T22:20:20.570Z,100346.84
2022-11-28T22:22:54.122Z,100349.47
2022-11-28T22:25:24.240Z,100351.22
2022-11-28T22:27:53.130Z,100346.84
2022-11-28T22:30:21.666Z,100350.38
2022-11-28T22:32:49.728Z,100348.69
2022-11-28T22:35:20.557Z,100344.31
2022-11-28T22:37:49.312Z,100346.22
2022-11-28T22:40:19.068Z,100353.22
2022-11-28T22:43:07.995Z,100356.06
2022-11-28T22:45:38.267Z,100356.06
2022-11-28T22:48:07.820Z,100351.75
2022-11-28T22:50:41.130Z,100362.25
2022-11-28T22:53:09.673Z,100361.50
2022-11-28T22:55:39.363Z,100353.75
2022-11-28T22:58:08.252Z,100362.47
2022-11-28T23:00:36.862Z,100360.88
2022-11-28T23:03:05.250Z,100360.06
2022-11-28T23:05:33.556Z,100362.06
2022-11-28T23:08:02.038Z,100370.56
2022-11-28T23:10:30.956Z,100366.22
2022-11-28T23:13:03.010Z,100361.94
2022-11-28T23:15:34.945Z,100360.25
2022-11-28T23:18:05.594Z,100362.16
2022-11-28T23:20:35.565Z,100368.34
2022-11-28T23:23:04.296Z,100371.69
2022-11-28T23:25:34.276Z,100374.31
2022-11-28T23:28:03.922Z,100371.69
2022-11-28T23:30:35.791Z,100382.09
2022-11-28T23:33:04.378Z,100374.22
2022-11-28T23:35:32.857Z,100378.00
2022-11-28T23:38:05.173Z,100382.28
2022-11-28T23:40:33.526Z,100377.81
2022-11-28T23:43:03.171Z,100381.25
2022-11-28T23:45:31.428Z,100376.94
2022-11-28T23:47:59.420Z,100380.53
2022-11-28T23:50:28.120Z,100365.72
2022-11-28T23:52:56.239Z,100370.13
2022-11-28T23:55:24.464Z,100370.13
2022-11-28T23:57:52.591Z,100368.44
